Time;durP1;ratioP1;P1;durP2;ratioP2;P2;SDS_P1;SDS_P2;PMS_P1;PMS_P2;Temp;Humidity;BMP_temperature;BMP_pressure;BME280_temperature;BME280_humidity;BME280_pressure;Samples;Min_cycle;Max_cycle;Signal;HPM_P1;HPM_P2
2022/05/10 00:01:25;;;;;;;7.68;3.95;;;;;;;;;;5046432;28;20037;-63
2022/05/10 00:03:51;;;;;;;6.93;4.07;;;;;;;;;;5040513;28;20049;-62
2022/05/10 00:06:18;;;;;;;8.30;4.10;;;;;;;;;;5045439;28;20029;-61
2022/05/10 00:08:44;;;;;;;10.10;4.53;;;;;;;;;;5046331;28;20496;-65
2022/05/10 00:11:10;;;;;;;9.32;4.45;;;;;;;;;;5045157;28;20049;-62
2022/05/10 00:13:37;;;;;;;7.20;4.50;;;;;;;;;;5032704;28;20473;-62
2022/05/10 00:16:05;;;;;;;6.97;4.50;;;;;;;;;;5041012;28;20035;-63
2022/05/10 00:18:31;;;;;;;7.45;4.25;;;;;;;;;;5046970;28;20041;-63
2022/05/10 00:20:57;;;;;;;7.70;4.40;;;;;;;;;;5041403;28;20124;-62
2022/05/10 00:23:23;;;;;;;7.13;4.70;;;;;;;;;;5042948;28;20364;-68
2022/05/10 00:25:49;;;;;;;10.43;5.10;;;;;;;;;;5047856;28;20523;-63
2022/05/10 00:28:17;;;;;;;15.57;5.00;;;;;;;;;;5049049;28;20312;-64
2022/05/10 00:30:43;;;;;;;12.35;4.50;;;;;;;;;;5035846;28;20056;-68
2022/05/10 00:33:15;;;;;;;8.85;4.70;;;;;;;;;;5032540;28;20049;-65
2022/05/10 00:35:40;;;;;;;7.88;4.47;;;;;;;;;;5037786;28;20050;-63
2022/05/10 00:38:06;;;;;;;11.20;4.90;;;;;;;;;;5049849;28;20356;-62
2022/05/10 00:40:35;;;;;;;10.98;4.70;;;;;;;;;;5043440;28;20481;-62
2022/05/10 00:43:36;;;;;;;7.75;4.70;;;;;;;;;;5038598;28;20080;-63
2022/05/10 00:46:13;;;;;;;7.53;4.18;;;;;;;;;;5045126;28;20099;-65
2022/05/10 00:49:15;;;;;;;7.10;3.90;;;;;;;;;;5040393;28;20049;-64
2022/05/10 00:52:07;;;;;;;8.13;4.50;;;;;;;;;;5045242;28;20053;-64
2022/05/10 00:54:46;;;;;;;8.30;4.05;;;;;;;;;;5037276;28;20241;-63
2022/05/10 00:57:31;;;;;;;6.22;3.97;;;;;;;;;;5039363;28;20049;-65
2022/05/10 01:00:06;;;;;;;;;;;;;;;;;;5060427;28;20551;-60
2022/05/10 01:02:44;;;;;;;;;;;;;;;;;;5039810;28;19921;-62
2022/05/10 01:05:37;;;;;;;8.05;3.90;;;;;;;;;;5043703;28;19921;-66
2022/05/10 01:08:21;;;;;;;13.00;3.60;;;;;;;;;;5046059;28;20053;-62
2022/05/10 01:11:15;;;;;;;7.80;3.65;;;;;;;;;;5044315;28;20132;-65
2022/05/10 01:13:59;;;;;;;7.95;3.90;;;;;;;;;;5031645;28;20060;-63
2022/05/10 01:16:25;;;;;;;9.30;3.50;;;;;;;;;;5043324;28;20076;-64
2022/05/10 01:18:52;;;;;;;7.80;3.42;;;;;;;;;;5033983;28;20156;-63
2022/05/10 01:21:36;;;;;;;7.30;4.00;;;;;;;;;;5031657;28;20141;-61
2022/05/10 01:24:29;;;;;;;4.97;3.17;;;;;;;;;;5035380;28;20057;-61
2022/05/10 01:27:27;;;;;;;8.85;3.58;;;;;;;;;;5030243;28;20303;-62
2022/05/10 01:30:01;;;;;;;8.07;3.53;;;;;;;;;;5046256;28;20504;-64
2022/05/10 01:35:27;;;;;;;6.05;3.38;;;;;;;;;;5034163;28;20045;-62
2022/05/10 01:37:59;;;;;;;5.13;3.72;;;;;;;;;;5042740;28;20049;-67
2022/05/10 01:40:32;;;;;;;5.95;4.10;;;;;;;;;;5048303;28;20051;-63
2022/05/10 01:43:31;;;;;;;7.35;3.92;;;;;;;;;;5033495;28;20073;-62
2022/05/10 01:46:09;;;;;;;6.78;4.18;;;;;;;;;;5036496;28;20042;-62
2022/05/10 01:48:37;;;;;;;5.28;3.95;;;;;;;;;;5043194;28;20480;-61
2022/05/10 01:51:19;;;;;;;6.57;4.25;;;;;;;;;;5042146;28;20049;-62
2022/05/10 01:53:46;;;;;;;7.10;4.22;;;;;;;;;;5042752;28;20056;-63
2022/05/10 01:56:22;;;;;;;8.13;4.13;;;;;;;;;;5047522;28;20397;-63
2022/05/10 01:58:48;;;;;;;6.68;4.47;;;;;;;;;;5043734;28;20049;-64
2022/05/10 02:01:17;;;;;;;7.93;4.25;;;;;;;;;;5042912;28;20063;-62
2022/05/10 02:04:06;;;;;;;10.02;4.65;;;;;;;;;;5050515;28;20152;-62
2022/05/10 02:06:46;;;;;;;7.32;4.15;;;;;;;;;;5039303;28;20143;-66
2022/05/10 02:09:24;;;;;;;7.47;4.60;;;;;;;;;;5043690;28;20539;-62
2022/05/10 02:12:00;;;;;;;6.55;4.28;;;;;;;;;;5038974;28;20045;-64
2022/05/10 02:14:41;;;;;;;8.55;4.90;;;;;;;;;;5043603;28;20033;-62
2022/05/10 02:17:23;;;;;;;5.70;4.22;;;;;;;;;;5039732;28;20049;-63
2022/05/10 02:19:58;;;;;;;6.47;4.50;;;;;;;;;;5045190;28;20288;-62
2022/05/10 02:22:46;;;;;;;8.30;4.65;;;;;;;;;;5041359;28;20052;-64
2022/05/10 02:25:24;;;;;;;8.05;4.28;;;;;;;;;;5032778;28;20313;-63
2022/05/10 02:27:59;;;;;;;8.20;4.40;;;;;;;;;;5039613;28;20053;-61
2022/05/10 02:30:29;;;;;;;10.60;4.32;;;;;;;;;;5043068;28;20076;-63
2022/05/10 02:33:06;;;;;;;5.53;3.90;;;;;;;;;;5030597;28;20132;-61
2022/05/10 02:35:39;;;;;;;8.18;4.13;;;;;;;;;;5035543;28;20049;-63
2022/05/10 02:38:06;;;;;;;5.93;4.03;;;;;;;;;;5036764;28;20057;-62
2022/05/10 02:40:32;;;;;;;9.20;3.83;;;;;;;;;;5042651;28;20095;-61
2022/05/10 02:42:59;;;;;;;9.35;3.60;;;;;;;;;;5044337;28;20067;-63
2022/05/10 02:45:26;;;;;;;8.13;3.65;;;;;;;;;;5044477;28;20047;-64
2022/05/10 02:47:52;;;;;;;9.07;3.58;;;;;;;;;;5043753;28;20049;-62
2022/05/10 02:50:33;;;;;;;10.20;4.22;;;;;;;;;;5033612;28;20099;-62
2022/05/10 02:52:59;;;;;;;5.80;3.58;;;;;;;;;;5033746;28;20055;-62
2022/05/10 02:55:39;;;;;;;5.78;3.40;;;;;;;;;;5036718;28;20046;-62
2022/05/10 02:58:16;;;;;;;7.95;3.42;;;;;;;;;;5041289;28;20077;-62
2022/05/10 03:00:42;;;;;;;7.70;3.47;;;;;;;;;;5033366;28;20127;-63
2022/05/10 03:03:15;;;;;;;8.55;3.30;;;;;;;;;;5041123;28;20110;-63
2022/05/10 03:05:41;;;;;;;9.00;3.15;;;;;;;;;;5041293;28;20128;-64
2022/05/10 03:08:07;;;;;;;7.57;3.30;;;;;;;;;;5045590;28;20045;-62
2022/05/10 03:10:33;;;;;;;7.60;3.33;;;;;;;;;;5041338;28;20049;-62
2022/05/10 03:12:59;;;;;;;7.88;3.45;;;;;;;;;;5046054;28;20095;-62
2022/05/10 03:15:26;;;;;;;5.03;3.28;;;;;;;;;;5035914;28;20038;-62
2022/05/10 03:17:52;;;;;;;7.78;3.35;;;;;;;;;;5030805;28;20045;-62
2022/05/10 03:20:17;;;;;;;5.13;3.25;;;;;;;;;;5046478;28;20333;-64
2022/05/10 03:22:43;;;;;;;6.90;3.42;;;;;;;;;;5039975;28;20124;-62
2022/05/10 03:25:09;;;;;;;6.78;3.25;;;;;;;;;;5039946;28;20067;-63
2022/05/10 03:27:37;;;;;;;7.20;3.40;;;;;;;;;;5045407;28;20148;-63
2022/05/10 03:30:04;;;;;;;7.97;3.15;;;;;;;;;;5035894;28;20067;-62
2022/05/10 03:32:31;;;;;;;6.38;3.30;;;;;;;;;;5039440;28;20128;-61
2022/05/10 03:34:58;;;;;;;7.57;2.95;;;;;;;;;;5043808;28;20048;-64
2022/05/10 03:37:26;;;;;;;8.32;2.95;;;;;;;;;;5050122;28;20374;-63
2022/05/10 03:39:52;;;;;;;7.07;3.15;;;;;;;;;;5036631;28;20055;-61
2022/05/10 03:42:19;;;;;;;5.60;2.72;;;;;;;;;;5046955;28;20128;-62
2022/05/10 03:44:52;;;;;;;5.00;2.72;;;;;;;;;;5048154;28;20192;-63
2022/05/10 03:47:23;;;;;;;3.33;2.80;;;;;;;;;;5038564;28;20063;-63
2022/05/10 03:49:49;;;;;;;7.82;2.72;;;;;;;;;;5043190;28;20104;-61
2022/05/10 03:52:15;;;;;;;7.57;3.20;;;;;;;;;;5046956;28;20045;-63
2022/05/10 03:54:42;;;;;;;4.07;2.63;;;;;;;;;;5040539;28;20240;-62
2022/05/10 03:57:09;;;;;;;3.95;2.70;;;;;;;;;;5034532;28;20179;-62
2022/05/10 03:59:41;;;;;;;8.57;3.35;;;;;;;;;;5045351;28;20094;-64
2022/05/10 04:02:14;;;;;;;5.95;3.30;;;;;;;;;;5042612;28;20110;-62
2022/05/10 04:04:40;;;;;;;4.50;2.80;;;;;;;;;;5034671;28;20045;-62
2022/05/10 04:07:07;;;;;;;8.23;3.22;;;;;;;;;;5042048;28;20103;-61
2022/05/10 04:09:33;;;;;;;6.93;3.22;;;;;;;;;;5036339;28;20118;-61
2022/05/10 04:11:59;;;;;;;5.85;2.95;;;;;;;;;;5046276;28;20102;-62
2022/05/10 04:14:25;;;;;;;6.90;3.42;;;;;;;;;;5042695;28;20177;-61
2022/05/10 04:16:51;;;;;;;7.63;3.20;;;;;;;;;;5037794;28;20083;-62
2022/05/10 04:19:17;;;;;;;6.03;3.00;;;;;;;;;;5039989;28;20049;-62
2022/05/10 04:21:43;;;;;;;9.77;3.60;;;;;;;;;;5047031;28;20053;-62
2022/05/10 04:24:09;;;;;;;8.18;3.30;;;;;;;;;;5034649;28;20090;-63
2022/05/10 04:26:35;;;;;;;15.40;3.45;;;;;;;;;;5035355;28;20082;-66
2022/05/10 04:29:01;;;;;;;5.28;3.40;;;;;;;;;;5044880;28;20464;-64
2022/05/10 04:31:27;;;;;;;9.93;3.38;;;;;;;;;;5047310;28;20083;-63
2022/05/10 04:33:53;;;;;;;5.28;3.20;;;;;;;;;;5039071;28;20075;-63
2022/05/10 04:36:22;;;;;;;6.68;3.95;;;;;;;;;;5044566;28;20064;-62
2022/05/10 04:38:49;;;;;;;6.57;3.70;;;;;;;;;;5038532;28;20041;-62
2022/05/10 04:41:24;;;;;;;8.65;3.75;;;;;;;;;;5040447;28;20390;-63
2022/05/10 04:43:51;;;;;;;7.20;3.60;;;;;;;;;;5019549;28;20636;-65
2022/05/10 04:46:17;;;;;;;13.20;4.90;;;;;;;;;;5037657;28;20090;-62
2022/05/10 04:48:44;;;;;;;9.73;5.72;;;;;;;;;;5039104;28;20045;-62
2022/05/10 04:51:09;;;;;;;8.52;5.65;;;;;;;;;;5042338;28;20150;-63
2022/05/10 04:53:36;;;;;;;11.70;6.40;;;;;;;;;;5044015;28;20079;-62
2022/05/10 04:56:05;;;;;;;12.02;6.68;;;;;;;;;;5045836;28;20048;-63
2022/05/10 04:58:31;;;;;;;17.80;7.43;;;;;;;;;;5046493;28;20068;-61
2022/05/10 05:01:07;;;;;;;12.30;6.90;;;;;;;;;;5043604;28;20516;-61
2022/05/10 05:03:34;;;;;;;13.32;7.10;;;;;;;;;;5042190;28;20065;-62
2022/05/10 05:06:00;;;;;;;18.65;8.32;;;;;;;;;;5044041;28;20581;-60
2022/05/10 05:08:26;;;;;;;13.90;7.63;;;;;;;;;;5043937;28;20505;-64
2022/05/10 05:10:54;;;;;;;22.92;8.68;;;;;;;;;;5044301;28;20076;-62
2022/05/10 05:13:20;;;;;;;14.30;8.23;;;;;;;;;;5047129;28;20892;-67
2022/05/10 05:15:46;;;;;;;15.43;8.57;;;;;;;;;;5047232;28;20579;-62
2022/05/10 05:18:12;;;;;;;27.17;8.50;;;;;;;;;;5045873;28;20393;-62
2022/05/10 05:20:40;;;;;;;10.95;6.80;;;;;;;;;;5042402;28;20396;-62
2022/05/10 05:23:08;;;;;;;19.33;7.70;;;;;;;;;;5044878;28;20378;-63
2022/05/10 05:25:41;;;;;;;15.18;6.82;;;;;;;;;;5041940;28;20045;-63
2022/05/10 05:28:09;;;;;;;15.30;7.10;;;;;;;;;;5043644;28;20056;-62
2022/05/10 05:30:35;;;;;;;19.67;7.13;;;;;;;;;;5035922;28;20048;-63
2022/05/10 05:33:02;;;;;;;13.90;7.60;;;;;;;;;;5039231;28;20512;-63
2022/05/10 05:35:28;;;;;;;16.23;6.82;;;;;;;;;;5036668;28;20567;-61
2022/05/10 05:37:54;;;;;;;11.88;6.65;;;;;;;;;;5041836;28;20052;-62
2022/05/10 05:40:21;;;;;;;20.23;7.45;;;;;;;;;;5039755;28;20049;-63
2022/05/10 05:42:49;;;;;;;18.33;6.22;;;;;;;;;;5040623;28;20504;-66
2022/05/10 05:45:17;;;;;;;14.32;6.28;;;;;;;;;;5038392;28;20083;-63
2022/05/10 05:47:43;;;;;;;15.38;6.22;;;;;;;;;;5039934;28;20058;-63
2022/05/10 05:50:12;;;;;;;12.85;6.55;;;;;;;;;;5043937;28;20148;-65
2022/05/10 05:52:38;;;;;;;17.95;6.75;;;;;;;;;;5040895;28;20261;-62
2022/05/10 05:55:07;;;;;;;15.27;6.28;;;;;;;;;;5040661;28;20082;-64
2022/05/10 05:57:33;;;;;;;11.90;5.75;;;;;;;;;;5036641;28;20037;-65
2022/05/10 05:59:58;;;;;;;16.58;5.97;;;;;;;;;;5035902;28;20041;-64
2022/05/10 06:02:25;;;;;;;16.10;6.07;;;;;;;;;;5044887;28;20053;-65
2022/05/10 06:04:52;;;;;;;21.13;7.15;;;;;;;;;;5041561;28;20123;-66
2022/05/10 06:07:18;;;;;;;17.95;5.65;;;;;;;;;;5035446;28;20045;-62
2022/05/10 06:09:46;;;;;;;10.27;5.35;;;;;;;;;;5035912;28;20485;-66
2022/05/10 06:12:16;;;;;;;15.18;5.72;;;;;;;;;;5032830;28;20104;-63
2022/05/10 06:14:42;;;;;;;12.65;4.95;;;;;;;;;;5040747;28;20037;-63
2022/05/10 06:17:10;;;;;;;16.58;4.70;;;;;;;;;;5038230;28;20076;-63
2022/05/10 06:19:38;;;;;;;14.07;4.30;;;;;;;;;;5042961;28;20132;-63
2022/05/10 06:22:06;;;;;;;15.82;4.43;;;;;;;;;;5046191;28;20226;-63
2022/05/10 06:24:33;;;;;;;12.65;4.32;;;;;;;;;;5039954;28;20109;-63
2022/05/10 06:26:59;;;;;;;12.68;5.00;;;;;;;;;;5044671;28;20431;-64
2022/05/10 06:29:25;;;;;;;14.85;5.60;;;;;;;;;;5047277;28;20049;-62
2022/05/10 06:31:50;;;;;;;13.68;5.15;;;;;;;;;;5036871;28;20523;-65
2022/05/10 06:34:17;;;;;;;21.60;6.45;;;;;;;;;;5043584;28;20060;-65
2022/05/10 06:36:44;;;;;;;14.75;5.90;;;;;;;;;;5035233;28;20496;-63
2022/05/10 06:39:10;;;;;;;16.80;6.30;;;;;;;;;;5040858;28;20049;-65
2022/05/10 06:41:36;;;;;;;19.63;6.55;;;;;;;;;;5047051;28;20045;-63
2022/05/10 06:44:03;;;;;;;21.83;6.78;;;;;;;;;;5041275;28;20049;-61
2022/05/10 06:46:32;;;;;;;14.77;6.60;;;;;;;;;;5042083;28;20523;-65
2022/05/10 06:48:59;;;;;;;12.27;7.35;;;;;;;;;;5046849;28;20053;-62
2022/05/10 06:51:25;;;;;;;21.95;7.22;;;;;;;;;;5032226;28;20052;-62
2022/05/10 06:53:53;;;;;;;23.42;7.88;;;;;;;;;;5033860;28;20059;-62
2022/05/10 06:56:20;;;;;;;16.00;7.28;;;;;;;;;;5036327;28;20503;-62
2022/05/10 06:58:46;;;;;;;19.55;7.15;;;;;;;;;;5035040;28;20049;-63
2022/05/10 07:01:12;;;;;;;22.88;6.90;;;;;;;;;;5044926;28;20048;-65
2022/05/10 07:03:50;;;;;;;16.95;6.65;;;;;;;;;;5045153;28;20583;-65
2022/05/10 07:06:19;;;;;;;21.77;6.65;;;;;;;;;;5039876;28;20045;-62
2022/05/10 07:08:45;;;;;;;17.60;6.93;;;;;;;;;;5039197;28;20033;-64
2022/05/10 07:11:12;;;;;;;20.40;6.50;;;;;;;;;;5043637;28;20056;-63
2022/05/10 07:13:38;;;;;;;21.17;6.70;;;;;;;;;;5032654;28;20041;-62
2022/05/10 07:16:04;;;;;;;15.55;5.63;;;;;;;;;;5043200;28;20400;-62
2022/05/10 07:18:30;;;;;;;19.83;5.50;;;;;;;;;;5042998;28;20061;-66
2022/05/10 07:20:57;;;;;;;13.70;5.30;;;;;;;;;;5041304;28;20045;-63
2022/05/10 07:23:30;;;;;;;15.80;5.75;;;;;;;;;;5045942;28;20405;-62
2022/05/10 07:25:58;;;;;;;21.33;6.55;;;;;;;;;;5041847;28;20045;-61
2022/05/10 07:28:25;;;;;;;15.30;7.30;;;;;;;;;;5040269;28;20389;-62
2022/05/10 07:30:51;;;;;;;26.15;8.05;;;;;;;;;;5045673;28;20493;-63
2022/05/10 07:33:21;;;;;;;14.68;7.07;;;;;;;;;;5044681;28;20053;-65
2022/05/10 07:38:31;;;;;;;19.77;7.72;;;;;;;;;;5045068;28;20049;-63
2022/05/10 07:40:57;;;;;;;29.98;8.38;;;;;;;;;;5051465;28;20238;-63
2022/05/10 07:43:23;;;;;;;18.92;8.68;;;;;;;;;;5041893;28;20281;-62
2022/05/10 07:45:52;;;;;;;17.48;7.22;;;;;;;;;;5053267;28;20054;-64
2022/05/10 07:48:18;;;;;;;22.40;7.60;;;;;;;;;;5053753;28;20059;-63
2022/05/10 07:50:44;;;;;;;22.83;7.88;;;;;;;;;;5048215;28;20556;-63
2022/05/10 07:53:14;;;;;;;14.55;7.30;;;;;;;;;;5054205;28;20081;-64
2022/05/10 07:55:40;;;;;;;14.20;6.70;;;;;;;;;;5054911;28;20041;-66
2022/05/10 07:58:07;;;;;;;19.98;7.18;;;;;;;;;;5043269;28;20155;-64
2022/05/10 08:00:35;;;;;;;16.98;6.47;;;;;;;;;;5055676;28;20527;-64
2022/05/10 08:03:17;;;;;;;20.20;6.28;;;;;;;;;;5047156;28;20069;-63
2022/05/10 08:05:44;;;;;;;15.52;5.63;;;;;;;;;;5050637;28;20128;-61
2022/05/10 08:08:11;;;;;;;14.98;5.43;;;;;;;;;;5052763;28;20063;-63
2022/05/10 08:10:38;;;;;;;14.40;5.70;;;;;;;;;;5054057;28;20049;-63
2022/05/10 08:13:09;;;;;;;21.33;5.93;;;;;;;;;;5052458;28;20045;-62
2022/05/10 08:15:34;;;;;;;17.70;6.03;;;;;;;;;;5051013;28;20041;-64
2022/05/10 08:18:00;;;;;;;14.88;5.28;;;;;;;;;;5052531;28;20049;-67
2022/05/10 08:20:26;;;;;;;18.73;5.90;;;;;;;;;;5050018;28;20135;-63
2022/05/10 08:22:52;;;;;;;15.63;4.85;;;;;;;;;;5054136;28;20504;-64
2022/05/10 08:25:17;;;;;;;20.38;5.05;;;;;;;;;;5050967;28;20496;-63
2022/05/10 08:27:43;;;;;;;13.18;5.22;;;;;;;;;;5052283;28;20052;-61
2022/05/10 08:30:10;;;;;;;14.50;4.82;;;;;;;;;;5044234;28;20081;-62
2022/05/10 08:32:36;;;;;;;20.38;5.15;;;;;;;;;;5043125;28;20044;-63
2022/05/10 08:35:03;;;;;;;13.80;5.13;;;;;;;;;;5052206;28;20391;-62
2022/05/10 08:37:28;;;;;;;13.07;4.97;;;;;;;;;;5050192;28;20067;-64
2022/05/10 08:39:54;;;;;;;14.35;5.18;;;;;;;;;;5050141;28;20488;-65
2022/05/10 08:42:30;;;;;;;11.18;4.60;;;;;;;;;;5049869;28;20045;-65
2022/05/10 08:45:02;;;;;;;17.60;5.15;;;;;;;;;;5052659;28;20118;-67
2022/05/10 08:47:29;;;;;;;9.77;4.28;;;;;;;;;;5050731;28;20063;-63
2022/05/10 08:50:07;;;;;;;9.50;4.80;;;;;;;;;;5036846;28;20049;-66
2022/05/10 08:52:38;;;;;;;11.25;4.70;;;;;;;;;;5046260;28;20112;-64
2022/05/10 08:55:06;;;;;;;14.48;4.78;;;;;;;;;;5048377;28;20091;-64
2022/05/10 08:57:57;;;;;;;11.15;5.18;;;;;;;;;;5052348;28;20053;-65
2022/05/10 09:00:41;;;;;;;12.93;6.00;;;;;;;;;;5052283;28;20052;-64
2022/05/10 09:03:50;;;;;;;15.88;6.68;;;;;;;;;;5048175;28;20045;-63
2022/05/10 09:06:39;;;;;;;15.73;7.00;;;;;;;;;;5046343;28;20049;-69
2022/05/10 09:09:31;;;;;;;12.40;7.10;;;;;;;;;;5052184;28;20436;-64
2022/05/10 09:12:10;;;;;;;13.75;7.40;;;;;;;;;;5034004;28;20107;-65
2022/05/10 09:14:55;;;;;;;18.60;7.72;;;;;;;;;;5037587;28;20387;-64
2022/05/10 09:17:23;;;;;;;20.08;8.35;;;;;;;;;;5046516;28;20052;-66
2022/05/10 09:19:50;;;;;;;20.60;7.88;;;;;;;;;;5045127;28;20052;-65
2022/05/10 09:22:42;;;;;;;15.88;8.32;;;;;;;;;;5038388;28;20056;-69
2022/05/10 09:25:19;;;;;;;14.70;7.47;;;;;;;;;;5048748;28;20151;-63
2022/05/10 09:27:48;;;;;;;12.15;6.50;;;;;;;;;;5048196;28;20488;-64
2022/05/10 09:30:31;;;;;;;16.58;6.60;;;;;;;;;;5048302;28;20140;-66
2022/05/10 09:36:10;;;;;;;16.02;6.07;;;;;;;;;;5042804;28;20057;-66
2022/05/10 09:38:47;;;;;;;16.80;5.57;;;;;;;;;;5047994;28;20315;-64
2022/05/10 09:41:46;;;;;;;16.45;5.43;;;;;;;;;;5042926;28;20052;-64
2022/05/10 09:44:22;;;;;;;15.90;5.63;;;;;;;;;;5041347;28;20512;-64
2022/05/10 09:46:49;;;;;;;10.77;4.70;;;;;;;;;;5035542;28;20057;-66
2022/05/10 09:49:41;;;;;;;12.27;4.10;;;;;;;;;;5043029;28;20337;-63
2022/05/10 09:52:18;;;;;;;10.48;4.32;;;;;;;;;;5040055;28;20053;-65
2022/05/10 09:54:44;;;;;;;6.30;3.58;;;;;;;;;;5037352;28;20708;-65
2022/05/10 09:57:24;;;;;;;12.05;3.25;;;;;;;;;;5044269;28;20045;-68
2022/05/10 09:59:50;;;;;;;8.35;4.13;;;;;;;;;;5047171;28;20064;-65
2022/05/10 10:02:55;;;;;;;8.13;5.05;;;;;;;;;;5034199;28;20128;-65
2022/05/10 10:05:29;;;;;;;13.50;6.65;;;;;;;;;;5035899;28;20247;-63
2022/05/10 10:07:57;;;;;;;8.60;5.22;;;;;;;;;;5043771;28;20271;-63
2022/05/10 10:10:27;;;;;;;9.43;3.65;;;;;;;;;;5042508;28;20094;-65
2022/05/10 10:12:54;;;;;;;6.53;3.28;;;;;;;;;;5047217;28;20045;-64
2022/05/10 10:15:28;;;;;;;4.63;3.22;;;;;;;;;;5047042;28;20087;-64
2022/05/10 10:17:58;;;;;;;8.98;3.30;;;;;;;;;;5045754;28;20049;-68
2022/05/10 10:20:46;;;;;;;5.10;3.47;;;;;;;;;;5035341;28;20041;-66
2022/05/10 10:23:39;;;;;;;7.15;4.55;;;;;;;;;;5046630;28;20076;-66
2022/05/10 10:26:34;;;;;;;8.48;4.40;;;;;;;;;;5038558;28;20052;-65
2022/05/10 10:29:17;;;;;;;7.85;4.60;;;;;;;;;;5046460;28;20091;-66
2022/05/10 10:31:48;;;;;;;8.45;5.22;;;;;;;;;;5037280;28;20187;-65
2022/05/10 10:34:33;;;;;;;8.38;4.75;;;;;;;;;;5049097;28;20079;-66
2022/05/10 10:37:19;;;;;;;10.75;5.13;;;;;;;;;;5036945;28;20051;-69
2022/05/10 10:39:54;;;;;;;13.02;6.20;;;;;;;;;;5046238;28;20041;-65
2022/05/10 10:42:29;;;;;;;10.38;6.45;;;;;;;;;;5046795;28;20041;-64
2022/05/10 10:45:00;;;;;;;13.93;6.32;;;;;;;;;;5046557;28;20049;-63
2022/05/10 10:47:42;;;;;;;10.98;5.60;;;;;;;;;;5047576;28;20078;-65
2022/05/10 10:50:25;;;;;;;9.75;5.60;;;;;;;;;;5048210;28;20072;-62
2022/05/10 10:52:57;;;;;;;10.82;5.68;;;;;;;;;;5048787;28;20068;-66
2022/05/10 10:55:34;;;;;;;15.63;6.70;;;;;;;;;;5043319;28;20083;-67
2022/05/10 10:58:00;;;;;;;8.80;5.32;;;;;;;;;;5042928;28;20071;-68
2022/05/10 11:01:05;;;;;;;10.70;5.43;;;;;;;;;;5049526;28;20488;-66
2022/05/10 11:03:55;;;;;;;11.57;5.65;;;;;;;;;;5048046;28;20041;-64
2022/05/10 11:06:26;;;;;;;11.23;5.30;;;;;;;;;;5046401;28;20053;-65
2022/05/10 11:09:04;;;;;;;8.00;4.97;;;;;;;;;;5034550;28;20461;-68
2022/05/10 11:11:35;;;;;;;9.82;5.20;;;;;;;;;;5042858;28;20277;-65
2022/05/10 11:14:24;;;;;;;10.05;5.15;;;;;;;;;;5050743;28;20037;-68
2022/05/10 11:17:09;;;;;;;10.60;5.40;;;;;;;;;;5052107;28;20060;-66
2022/05/10 11:19:44;;;;;;;9.00;5.30;;;;;;;;;;5047591;28;20123;-64
2022/05/10 11:22:40;;;;;;;7.55;5.20;;;;;;;;;;5051442;28;20052;-64
2022/05/10 11:25:31;;;;;;;12.30;5.97;;;;;;;;;;5050593;28;20051;-64
2022/05/10 11:28:14;;;;;;;11.75;4.53;;;;;;;;;;5049700;28;20041;-67
2022/05/10 11:30:52;;;;;;;8.60;4.50;;;;;;;;;;5032667;28;20143;-65
2022/05/10 11:33:29;;;;;;;5.95;4.38;;;;;;;;;;5028486;28;20049;-64
2022/05/10 11:36:20;;;;;;;12.45;4.35;;;;;;;;;;5048621;28;20045;-66
2022/05/10 11:39:04;;;;;;;11.50;4.10;;;;;;;;;;5049230;28;20614;-70
2022/05/10 11:41:42;;;;;;;6.88;3.45;;;;;;;;;;5047729;28;20056;-64
2022/05/10 11:44:20;;;;;;;10.02;4.38;;;;;;;;;;5047939;28;20586;-67
2022/05/10 11:47:30;;;;;;;9.82;4.25;;;;;;;;;;5047720;28;20045;-65
2022/05/10 11:50:15;;;;;;;6.05;3.33;;;;;;;;;;4970265;28;20150;-67
2022/05/10 11:53:07;;;;;;;8.32;3.20;;;;;;;;;;4969834;28;20051;-69
2022/05/10 11:55:54;;;;;;;6.38;2.97;;;;;;;;;;4968497;28;20666;-65
2022/05/10 11:58:23;;;;;;;4.20;2.50;;;;;;;;;;4968822;28;20657;-65
2022/05/10 12:00:57;;;;;;;9.02;2.33;;;;;;;;;;4968995;28;20047;-68
2022/05/10 12:03:44;;;;;;;4.05;2.70;;;;;;;;;;4953024;28;20091;-67
2022/05/10 12:06:24;;;;;;;8.13;2.40;;;;;;;;;;4969169;28;20057;-64
2022/05/10 12:08:54;;;;;;;5.32;2.35;;;;;;;;;;4969940;28;20046;-70
2022/05/10 12:11:32;;;;;;;4.13;2.25;;;;;;;;;;4969254;28;20543;-67
2022/05/10 12:22:58;;;;;;;3.20;2.10;;;;;;;;;;4960360;28;20046;-66
2022/05/10 12:25:59;;;;;;;5.85;3.70;;;;;;;;;;5004730;28;20047;-67
2022/05/10 12:28:45;;;;;;;5.07;2.38;;;;;;;;;;5046797;28;20142;-64
2022/05/10 12:31:44;;;;;;;9.35;2.25;;;;;;;;;;5036885;28;20105;-66
2022/05/10 12:34:12;;;;;;;6.57;2.17;;;;;;;;;;5039892;28;20075;-66
2022/05/10 12:36:43;;;;;;;7.30;2.20;;;;;;;;;;5049847;28;20047;-68
2022/05/10 12:39:25;;;;;;;6.03;2.08;;;;;;;;;;5049752;28;20045;-64
2022/05/10 12:42:00;;;;;;;5.35;2.38;;;;;;;;;;5040323;28;20049;-66
2022/05/10 12:44:38;;;;;;;4.80;2.67;;;;;;;;;;5044106;28;20452;-68
2022/05/10 12:47:29;;;;;;;4.10;2.13;;;;;;;;;;5044764;28;20125;-69
2022/05/10 12:50:00;;;;;;;4.70;2.17;;;;;;;;;;5039202;28;20057;-67
2022/05/10 12:52:43;;;;;;;5.50;1.63;;;;;;;;;;5039834;28;20041;-67
2022/05/10 12:55:32;;;;;;;4.82;2.08;;;;;;;;;;5038870;28;20049;-69
2022/05/10 12:58:19;;;;;;;4.32;1.90;;;;;;;;;;5047384;28;20047;-64
2022/05/10 13:00:51;;;;;;;7.93;2.13;;;;;;;;;;5046748;28;20072;-66
2022/05/10 13:03:22;;;;;;;5.63;2.08;;;;;;;;;;5043973;28;20059;-68
2022/05/10 13:06:26;;;;;;;8.38;2.13;;;;;;;;;;5046407;28;20045;-71
2022/05/10 13:09:04;;;;;;;4.53;2.00;;;;;;;;;;5033748;28;20049;-67
2022/05/10 13:11:39;;;;;;;6.72;1.85;;;;;;;;;;5040333;28;21159;-67
2022/05/10 13:14:06;;;;;;;3.53;2.08;;;;;;;;;;5034803;28;20047;-69
2022/05/10 13:16:32;;;;;;;10.15;2.20;;;;;;;;;;5038646;28;20060;-67
2022/05/10 13:18:59;;;;;;;7.93;2.10;;;;;;;;;;5038087;28;20061;-68
2022/05/10 13:21:28;;;;;;;5.03;1.90;;;;;;;;;;5042167;28;20048;-68
2022/05/10 13:23:57;;;;;;;9.70;2.25;;;;;;;;;;5048663;28;20056;-67
2022/05/10 13:26:23;;;;;;;6.68;2.30;;;;;;;;;;5040612;28;20033;-69
2022/05/10 13:28:54;;;;;;;8.48;2.40;;;;;;;;;;5049716;28;20047;-68
2022/05/10 13:31:27;;;;;;;6.13;2.30;;;;;;;;;;5047947;28;20733;-70
2022/05/10 13:34:10;;;;;;;7.13;2.20;;;;;;;;;;5049141;28;20053;-66
2022/05/10 13:36:37;;;;;;;9.68;2.40;;;;;;;;;;5039612;28;20492;-67
2022/05/10 13:39:04;;;;;;;17.15;2.75;;;;;;;;;;5049774;28;20055;-68
2022/05/10 13:41:33;;;;;;;6.18;2.30;;;;;;;;;;5042772;28;20217;-68
2022/05/10 13:44:04;;;;;;;3.38;2.00;;;;;;;;;;5044704;28;20041;-67
2022/05/10 13:46:53;;;;;;;3.33;1.83;;;;;;;;;;5041865;28;20096;-67
2022/05/10 13:49:25;;;;;;;6.60;1.70;;;;;;;;;;5038701;28;20744;-68
2022/05/10 13:51:53;;;;;;;6.85;2.10;;;;;;;;;;5032291;28;20104;-68
2022/05/10 13:54:22;;;;;;;4.82;1.80;;;;;;;;;;5047620;28;20511;-67
2022/05/10 13:56:48;;;;;;;7.53;2.03;;;;;;;;;;5045358;28;20053;-66
2022/05/10 13:59:28;;;;;;;7.15;2.17;;;;;;;;;;5042433;28;20404;-67
2022/05/10 14:01:55;;;;;;;7.55;1.88;;;;;;;;;;5044709;28;20152;-68
2022/05/10 14:04:22;;;;;;;7.10;1.70;;;;;;;;;;5054843;28;20045;-68
2022/05/10 14:06:57;;;;;;;8.20;2.00;;;;;;;;;;5048099;28;20141;-64
2022/05/10 14:09:27;;;;;;;6.18;1.80;;;;;;;;;;5037409;28;20493;-65
2022/05/10 14:11:57;;;;;;;9.27;2.05;;;;;;;;;;5035616;28;20050;-69
2022/05/10 14:14:28;;;;;;;7.45;1.60;;;;;;;;;;5039628;28;20047;-66
2022/05/10 14:16:57;;;;;;;9.25;2.22;;;;;;;;;;5048923;28;20158;-67
2022/05/10 14:19:31;;;;;;;6.70;1.90;;;;;;;;;;5049460;28;20044;-66
2022/05/10 14:22:04;;;;;;;;;;;;;;;;;;5042206;28;20475;-67
2022/05/10 14:24:34;;;;;;;4.10;1.85;;;;;;;;;;5038220;28;19921;-67
2022/05/10 14:27:23;;;;;;;4.32;1.70;;;;;;;;;;5037646;28;20049;-67
2022/05/10 14:29:57;;;;;;;5.65;1.85;;;;;;;;;;5042276;28;20136;-69
2022/05/10 14:32:25;;;;;;;6.70;2.00;;;;;;;;;;5046905;28;20393;-67
2022/05/10 14:35:22;;;;;;;5.10;2.60;;;;;;;;;;5043447;28;20041;-67
2022/05/10 14:37:49;;;;;;;5.10;1.67;;;;;;;;;;5032064;28;20061;-66
2022/05/10 14:40:34;;;;;;;4.75;1.92;;;;;;;;;;5045070;28;20067;-68
2022/05/10 14:43:05;;;;;;;4.15;1.80;;;;;;;;;;5040650;28;20128;-67
2022/05/10 14:45:50;;;;;;;3.78;1.80;;;;;;;;;;5043030;28;20045;-68
2022/05/10 14:48:23;;;;;;;3.85;1.52;;;;;;;;;;5040044;28;20045;-67
2022/05/10 14:50:55;;;;;;;6.97;1.90;;;;;;;;;;5040402;28;20053;-66
2022/05/10 14:53:25;;;;;;;5.03;1.73;;;;;;;;;;5045914;28;20396;-68
2022/05/10 14:56:03;;;;;;;7.93;2.08;;;;;;;;;;5047744;28;20072;-67
2022/05/10 14:58:39;;;;;;;4.93;1.90;;;;;;;;;;5047255;28;20079;-68
2022/05/10 15:01:09;;;;;;;6.50;1.75;;;;;;;;;;5046864;28;20041;-68
2022/05/10 15:03:39;;;;;;;3.85;1.83;;;;;;;;;;5049011;28;20721;-65
2022/05/10 15:06:11;;;;;;;6.03;1.98;;;;;;;;;;5049286;28;20048;-67
2022/05/10 15:08:37;;;;;;;8.13;2.10;;;;;;;;;;5046372;28;20110;-69
2022/05/10 15:11:05;;;;;;;4.20;2.13;;;;;;;;;;5046989;28;20041;-66
2022/05/10 15:13:31;;;;;;;2.55;1.70;;;;;;;;;;5047723;28;20053;-66
2022/05/10 15:15:59;;;;;;;7.68;2.20;;;;;;;;;;5050503;28;20195;-65
2022/05/10 15:21:15;;;;;;;17.08;2.05;;;;;;;;;;5037697;28;20056;-66
2022/05/10 15:23:41;;;;;;;3.90;1.80;;;;;;;;;;5045384;28;20037;-67
2022/05/10 15:26:12;;;;;;;5.35;2.20;;;;;;;;;;5043545;28;20033;-63
2022/05/10 15:28:41;;;;;;;4.00;1.60;;;;;;;;;;5042847;28;20086;-67
2022/05/10 15:31:07;;;;;;;6.78;1.90;;;;;;;;;;5042793;28;20052;-66
2022/05/10 15:33:33;;;;;;;6.40;1.90;;;;;;;;;;5041987;28;20033;-67